Terminal Aerodrome Forecast
Issued by NWS Blacksburg, VA

Current Version | Previous Version | Graphics & Text | Print | Product List | Glossary On
Versions: 1 2 3 4 5 6 7 8 9 10 11 12 13 14 15 16 17 18
000
FTUS41 KRNK 212222 AAB
TAFBLF
TAF AMD
KBLF 212222Z 2122/2218 30009KT P6SM SCT025
     FM220700 33007KT P6SM BKN025
     FM221100 33008KT P6SM BKN080
     FM221500 34010G18KT P6SM SCT140=

USA.gov is the U.S. government's official web portal to all federal, state and local government web resources and services.